createdAt,value
2019-02-05T00:01:30.838Z,56.03
2019-02-05T00:04:02.055Z,56.04
2019-02-05T00:06:31.529Z,56.49
2019-02-05T00:09:00.998Z,56.56
2019-02-05T00:11:32.323Z,56.64
2019-02-05T00:14:01.798Z,57.21
2019-02-05T00:16:31.322Z,57.36
2019-02-05T00:19:01.084Z,57.29
2019-02-05T00:21:30.606Z,57.42
2019-02-05T00:24:00.096Z,57.68
2019-02-05T00:26:29.588Z,57.67
2019-02-05T00:28:59.068Z,57.65
2019-02-05T00:31:28.556Z,57.92
2019-02-05T00:33:58.033Z,58.22
2019-02-05T00:36:27.515Z,57.80
2019-02-05T00:38:56.993Z,58.25
2019-02-05T00:41:26.477Z,58.87
2019-02-05T00:43:55.957Z,59.46
2019-02-05T00:46:25.439Z,60.07
2019-02-05T00:48:55.882Z,60.06
2019-02-05T00:51:25.378Z,60.59
2019-02-05T00:53:54.851Z,61.02
2019-02-05T00:56:24.324Z,61.17
2019-02-05T00:58:53.915Z,61.22
2019-02-05T01:01:23.358Z,61.60
2019-02-05T01:03:52.838Z,61.42
2019-02-05T01:06:22.387Z,61.66
2019-02-05T01:08:51.863Z,61.88
2019-02-05T01:11:21.338Z,61.55
2019-02-05T01:13:50.839Z,61.44
2019-02-05T01:16:20.597Z,61.12
2019-02-05T01:18:50.089Z,61.33
2019-02-05T01:21:19.584Z,61.39
2019-02-05T01:23:49.083Z,62.37
2019-02-05T01:26:28.646Z,63.28
2019-02-05T01:28:49.756Z,64.16
2019-02-05T01:31:19.522Z,64.88
2019-02-05T01:33:48.999Z,65.15
2019-02-05T01:36:18.486Z,65.71
2019-02-05T01:38:47.972Z,66.43
2019-02-05T01:41:17.458Z,66.15
2019-02-05T01:43:46.947Z,66.68
2019-02-05T01:46:16.445Z,66.65
2019-02-05T01:48:46.609Z,66.69
2019-02-05T01:51:16.096Z,66.70
2019-02-05T01:53:45.598Z,68.04
2019-02-05T01:56:15.086Z,68.07
2019-02-05T01:58:44.583Z,67.90
2019-02-05T02:01:14.134Z,68.44
2019-02-05T02:03:43.717Z,68.33
2019-02-05T02:06:13.211Z,68.75
2019-02-05T02:08:42.780Z,68.87
2019-02-05T02:11:12.259Z,68.44
2019-02-05T02:13:41.750Z,68.63
2019-02-05T02:16:11.221Z,68.90
2019-02-05T02:18:40.706Z,68.37
2019-02-05T02:21:10.185Z,68.62
2019-02-05T02:23:39.672Z,68.68
2019-02-05T02:26:09.147Z,68.74
2019-02-05T02:28:38.640Z,68.53
2019-02-05T02:31:08.192Z,68.98
2019-02-05T02:33:37.696Z,69.20
2019-02-05T02:36:07.186Z,69.74
2019-02-05T02:38:36.676Z,69.66
2019-02-05T02:41:06.249Z,69.77
2019-02-05T02:43:36.139Z,69.92
2019-02-05T02:46:05.710Z,69.92
2019-02-05T02:48:36.177Z,69.96
2019-02-05T02:51:05.665Z,69.98
2019-02-05T02:53:35.151Z,70.66
2019-02-05T02:56:04.907Z,70.85
2019-02-05T02:58:34.681Z,70.85
2019-02-05T03:01:04.148Z,70.57
2019-02-05T03:03:33.768Z,70.75
2019-02-05T03:06:03.268Z,71.31
2019-02-05T03:08:32.765Z,71.33
2019-02-05T03:11:02.247Z,70.87
2019-02-05T03:13:31.811Z,71.22
2019-02-05T03:16:01.290Z,70.71
2019-02-05T03:18:30.775Z,70.44
2019-02-05T03:21:00.257Z,70.75
2019-02-05T03:23:29.753Z,70.61
2019-02-05T03:25:59.249Z,70.67
2019-02-05T03:28:28.746Z,70.76
2019-02-05T03:30:58.235Z,70.75
2019-02-05T03:33:27.751Z,70.83
2019-02-05T03:35:57.295Z,70.70
2019-02-05T03:38:26.805Z,70.89
2019-02-05T03:41:04.579Z,70.97
2019-02-05T03:43:35.705Z,70.97
2019-02-05T03:46:12.664Z,70.55
2019-02-05T03:48:43.178Z,70.76
2019-02-05T03:52:21.615Z,71.42
2019-02-05T03:55:26.773Z,70.89
2019-02-05T03:58:09.085Z,71.28
2019-02-05T04:01:10.327Z,71.26
2019-02-05T04:03:55.303Z,71.01
2019-02-05T04:07:03.615Z,70.94
2019-02-05T04:09:43.486Z,70.88
2019-02-05T04:12:22.333Z,71.17
2019-02-05T04:15:09.005Z,70.78
2019-02-05T04:17:53.330Z,71.20
2019-02-05T04:21:18.887Z,71.41
2019-02-05T04:24:03.808Z,71.75
2019-02-05T04:27:10.417Z,71.70
2019-02-05T04:30:05.947Z,71.71
2019-02-05T04:32:54.370Z,71.70
2019-02-05T04:35:38.432Z,72.18
2019-02-05T04:38:43.654Z,72.26
2019-02-05T04:41:55.293Z,72.34
2019-02-05T04:44:46.879Z,72.13
2019-02-05T04:47:52.942Z,72.03
2019-02-05T04:50:30.665Z,72.27
2019-02-05T04:53:28.914Z,72.95
2019-02-05T04:56:19.730Z,71.86
2019-02-05T04:59:36.781Z,72.53
2019-02-05T05:02:36.959Z,72.07
2019-02-05T05:05:33.292Z,72.74
2019-02-05T05:08:53.333Z,72.51
2019-02-05T05:11:22.887Z,72.87
2019-02-05T05:13:52.384Z,72.64
2019-02-05T05:16:21.987Z,72.74
2019-02-05T05:18:51.513Z,72.90
2019-02-05T05:21:21.090Z,73.22
2019-02-05T05:23:50.869Z,73.02
2019-02-05T05:26:20.425Z,72.36
2019-02-05T05:28:49.978Z,72.20
2019-02-05T05:31:19.545Z,72.25
2019-02-05T05:33:49.039Z,72.66
2019-02-05T05:36:18.522Z,72.75
2019-02-05T05:38:48.085Z,73.18
2019-02-05T05:41:18.009Z,73.23
2019-02-05T05:43:47.577Z,73.72
2019-02-05T05:46:17.063Z,74.60
2019-02-05T05:48:46.649Z,73.97
2019-02-05T05:51:16.167Z,73.51
2019-02-05T05:53:45.734Z,73.47
2019-02-05T05:56:15.341Z,73.33
2019-02-05T05:58:44.825Z,74.25
2019-02-05T06:01:14.318Z,74.28
2019-02-05T06:03:43.841Z,74.22
2019-02-05T06:06:13.369Z,73.78
2019-02-05T06:08:43.010Z,73.93
2019-02-05T06:11:12.567Z,73.56
2019-02-05T06:13:42.340Z,74.12
2019-02-05T06:16:12.926Z,73.79
2019-02-05T06:18:42.414Z,74.09
2019-02-05T06:21:13.762Z,74.12
2019-02-05T06:23:43.472Z,74.28
2019-02-05T06:26:13.002Z,74.37
2019-02-05T06:28:42.757Z,73.95
2019-02-05T06:31:12.248Z,73.80
2019-02-05T06:33:41.799Z,74.04
2019-02-05T06:36:11.301Z,73.84
2019-02-05T06:38:40.805Z,73.35
2019-02-05T06:41:10.332Z,73.72
2019-02-05T06:43:40.276Z,73.16
2019-02-05T06:46:09.772Z,73.08
2019-02-05T06:48:39.434Z,73.24
2019-02-05T06:51:08.945Z,73.42
2019-02-05T06:53:38.459Z,73.19
2019-02-05T06:56:07.955Z,73.02
2019-02-05T06:58:45.960Z,73.54
2019-02-05T07:01:09.113Z,73.12
2019-02-05T07:03:38.642Z,73.79
2019-02-05T07:06:08.221Z,73.78
2019-02-05T07:08:37.731Z,73.29
2019-02-05T07:11:07.500Z,72.92
2019-02-05T07:13:36.995Z,72.77
2019-02-05T07:16:06.481Z,72.84
2019-02-05T07:18:36.093Z,72.86
2019-02-05T07:21:06.610Z,73.01
2019-02-05T07:23:36.218Z,73.15
2019-02-05T07:26:05.713Z,73.41
2019-02-05T07:28:35.227Z,73.59
2019-02-05T07:31:05.456Z,73.54
2019-02-05T07:33:34.955Z,73.54
2019-02-05T07:36:04.898Z,73.47
2019-02-05T07:38:36.241Z,73.62
2019-02-05T07:41:06.094Z,72.76
2019-02-05T07:43:36.236Z,73.07
2019-02-05T07:46:06.314Z,73.36
2019-02-05T07:48:36.324Z,73.46
2019-02-05T07:51:06.349Z,73.84
2019-02-05T07:53:36.694Z,73.83
2019-02-05T07:56:06.506Z,73.44
2019-02-05T07:58:36.458Z,73.51
2019-02-05T08:01:06.460Z,73.38
2019-02-05T08:03:36.231Z,72.96
2019-02-05T08:06:05.793Z,72.89
2019-02-05T08:08:35.280Z,72.71
2019-02-05T08:11:05.606Z,72.91
2019-02-05T08:13:35.116Z,72.77
2019-02-05T08:16:04.984Z,72.80
2019-02-05T08:18:34.510Z,72.66
2019-02-05T08:21:04.407Z,72.40
2019-02-05T08:23:33.898Z,72.73
2019-02-05T08:26:03.396Z,72.57
2019-02-05T08:28:40.545Z,72.18
2019-02-05T08:31:04.158Z,72.13
2019-02-05T08:33:33.655Z,71.83
2019-02-05T08:36:03.226Z,71.45
2019-02-05T08:38:32.744Z,71.67
2019-02-05T08:41:02.225Z,72.11
2019-02-05T08:43:31.708Z,71.85
2019-02-05T08:46:01.268Z,71.76
2019-02-05T08:48:30.751Z,71.97
2019-02-05T08:51:00.225Z,71.49
2019-02-05T08:53:30.094Z,71.51
2019-02-05T08:55:59.567Z,71.58
2019-02-05T08:58:31.248Z,72.05
2019-02-05T09:01:00.297Z,71.77
2019-02-05T09:03:29.792Z,72.12
2019-02-05T09:05:59.275Z,72.11
2019-02-05T09:08:28.761Z,72.18
2019-02-05T09:10:58.324Z,72.65
2019-02-05T09:13:28.776Z,71.98
2019-02-05T09:15:58.263Z,72.15
2019-02-05T09:18:28.716Z,72.13
2019-02-05T09:20:58.200Z,72.50
2019-02-05T09:23:27.844Z,72.02
2019-02-05T09:25:57.601Z,71.48
2019-02-05T09:28:27.094Z,72.09
2019-02-05T09:30:56.576Z,71.71
2019-02-05T09:33:26.055Z,72.23
2019-02-05T09:35:55.543Z,72.61
2019-02-05T09:38:25.018Z,72.34
2019-02-05T09:40:54.502Z,72.65
2019-02-05T09:43:23.994Z,73.29
2019-02-05T09:45:53.484Z,73.64
2019-02-05T09:48:22.956Z,73.30
2019-02-05T09:50:52.445Z,73.14
2019-02-05T09:53:21.935Z,73.27
2019-02-05T09:55:51.424Z,73.49
2019-02-05T09:58:21.205Z,73.80
2019-02-05T10:00:50.700Z,73.88
2019-02-05T10:03:20.248Z,73.62
2019-02-05T10:05:49.855Z,72.85
2019-02-05T10:08:19.342Z,73.14
2019-02-05T10:10:49.902Z,72.43
2019-02-05T10:13:19.455Z,72.31
2019-02-05T10:15:48.916Z,72.71
2019-02-05T10:18:18.424Z,72.49
2019-02-05T10:20:48.368Z,71.64
2019-02-05T10:23:17.953Z,72.02
2019-02-05T10:25:47.543Z,71.37
2019-02-05T10:28:17.051Z,71.64
2019-02-05T10:30:46.905Z,71.33
2019-02-05T10:33:16.477Z,71.59
2019-02-05T10:35:46.086Z,71.20
2019-02-05T10:38:15.591Z,70.83
2019-02-05T10:40:45.109Z,70.99
2019-02-05T10:43:14.695Z,70.77
2019-02-05T10:45:44.696Z,71.13
2019-02-05T10:48:14.198Z,70.41
2019-02-05T10:50:44.751Z,70.66
2019-02-05T10:53:14.451Z,70.20
2019-02-05T10:55:43.969Z,70.52
2019-02-05T10:58:13.469Z,70.69
2019-02-05T11:00:42.983Z,71.11
2019-02-05T11:03:12.560Z,71.10
2019-02-05T11:05:42.078Z,70.90
2019-02-05T11:08:11.591Z,71.20
2019-02-05T11:10:41.114Z,70.78
2019-02-05T11:13:10.676Z,71.02
2019-02-05T11:15:40.274Z,71.14
2019-02-05T11:18:11.119Z,71.34
2019-02-05T11:20:40.742Z,71.35
2019-02-05T11:23:10.521Z,71.57
2019-02-05T11:25:40.381Z,71.89
2019-02-05T11:28:09.976Z,71.49
2019-02-05T11:30:44.331Z,71.27
2019-02-05T11:33:14.286Z,71.42
2019-02-05T11:35:43.864Z,71.38
2019-02-05T11:38:13.536Z,71.75
2019-02-05T11:40:43.106Z,71.45
2019-02-05T11:43:12.705Z,71.24
2019-02-05T11:45:42.196Z,71.11
2019-02-05T11:48:16.738Z,71.16
2019-02-05T11:50:46.318Z,70.91
2019-02-05T11:53:15.839Z,70.76
2019-02-05T11:55:45.443Z,70.58
2019-02-05T11:58:15.777Z,70.16
2019-02-05T12:00:50.046Z,70.42
2019-02-05T12:03:19.922Z,70.93
2019-02-05T12:05:50.297Z,70.94
2019-02-05T12:08:19.899Z,70.61
2019-02-05T12:10:49.430Z,70.93
2019-02-05T12:13:18.931Z,71.08
2019-02-05T12:15:48.469Z,70.73
2019-02-05T12:18:18.044Z,70.54
2019-02-05T12:20:47.543Z,70.24
2019-02-05T12:23:17.183Z,69.89
2019-02-05T12:25:46.709Z,69.57
2019-02-05T12:28:16.234Z,69.33
2019-02-05T12:30:46.096Z,69.16
2019-02-05T12:33:15.665Z,68.99
2019-02-05T12:35:45.739Z,69.08
2019-02-05T12:38:15.229Z,69.02
2019-02-05T12:40:44.729Z,68.77
2019-02-05T12:43:14.845Z,68.66
2019-02-05T12:45:44.335Z,68.89
2019-02-05T12:48:13.831Z,69.09
2019-02-05T12:50:44.820Z,69.27
2019-02-05T12:53:14.313Z,70.13
2019-02-05T12:55:43.824Z,69.76
2019-02-05T12:58:13.413Z,70.44
2019-02-05T13:00:55.937Z,69.96
2019-02-05T13:03:16.474Z,70.18
2019-02-05T13:05:46.441Z,70.09
2019-02-05T13:08:16.085Z,69.93
2019-02-05T13:10:47.838Z,69.97
2019-02-05T13:13:18.432Z,70.16
2019-02-05T13:15:49.012Z,70.51
2019-02-05T13:18:18.574Z,70.01
2019-02-05T13:20:48.431Z,71.54
2019-02-05T13:23:18.022Z,71.56
2019-02-05T13:25:47.570Z,71.30
2019-02-05T13:28:17.278Z,71.71
2019-02-05T13:30:46.867Z,71.62
2019-02-05T13:33:17.168Z,71.27
2019-02-05T13:35:46.820Z,71.28
2019-02-05T13:38:16.419Z,70.92
2019-02-05T13:40:45.931Z,70.57
2019-02-05T13:43:15.550Z,70.85
2019-02-05T13:45:45.335Z,71.04
2019-02-05T13:48:14.946Z,70.41
2019-02-05T13:50:44.528Z,70.52
2019-02-05T13:53:14.027Z,70.30
2019-02-05T13:55:45.812Z,70.37
2019-02-05T13:58:15.639Z,70.28
2019-02-05T14:00:50.203Z,70.32
2019-02-05T14:03:19.692Z,70.83
2019-02-05T14:05:49.336Z,70.24
2019-02-05T14:08:18.967Z,70.03
2019-02-05T14:10:48.998Z,69.81
2019-02-05T14:13:18.784Z,69.83
2019-02-05T14:15:50.930Z,70.16
2019-02-05T14:18:22.927Z,70.02
2019-02-05T14:20:51.808Z,70.21
2019-02-05T14:23:21.483Z,70.00
2019-02-05T14:25:50.978Z,70.19
2019-02-05T14:28:20.473Z,70.54
2019-02-05T14:30:55.143Z,70.74
2019-02-05T14:33:26.151Z,70.78
2019-02-05T14:35:55.742Z,70.72
2019-02-05T14:38:25.358Z,70.56
2019-02-05T14:40:54.892Z,70.50
2019-02-05T14:43:24.731Z,71.00
2019-02-05T14:45:54.262Z,70.66
2019-02-05T14:48:23.786Z,70.83
2019-02-05T14:50:53.305Z,70.79
2019-02-05T14:53:22.843Z,70.22
2019-02-05T14:55:52.400Z,70.36
2019-02-05T14:58:22.237Z,70.14
2019-02-05T15:00:51.762Z,70.44
2019-02-05T15:03:21.246Z,70.70
2019-02-05T15:05:50.748Z,70.13
2019-02-05T15:08:20.408Z,69.85
2019-02-05T15:10:49.908Z,69.93
2019-02-05T15:13:19.450Z,69.45
2019-02-05T15:15:50.008Z,69.41
2019-02-05T15:18:21.685Z,69.46
2019-02-05T15:20:51.445Z,69.57
2019-02-05T15:23:21.589Z,69.85
2019-02-05T15:25:51.679Z,69.97
2019-02-05T15:28:21.205Z,69.92
2019-02-05T15:30:50.710Z,70.07
2019-02-05T15:33:26.827Z,69.94
2019-02-05T15:35:59.424Z,70.04
2019-02-05T15:38:29.308Z,69.81
2019-02-05T15:41:00.286Z,69.75
2019-02-05T15:43:29.889Z,69.64
2019-02-05T15:45:59.400Z,69.85
2019-02-05T15:48:28.885Z,70.20
2019-02-05T15:50:58.408Z,69.60
2019-02-05T15:53:28.265Z,69.71
2019-02-05T15:55:58.822Z,69.91
2019-02-05T15:58:28.340Z,70.23
2019-02-05T16:00:57.847Z,69.54
2019-02-05T16:03:27.374Z,69.63
2019-02-05T16:05:56.891Z,69.28
2019-02-05T16:08:26.390Z,69.04
2019-02-05T16:10:55.904Z,69.16
2019-02-05T16:13:25.415Z,69.14
2019-02-05T16:15:54.957Z,69.04
2019-02-05T16:18:25.331Z,68.85
2019-02-05T16:20:54.853Z,68.85
2019-02-05T16:23:24.377Z,68.69
2019-02-05T16:25:53.887Z,68.75
2019-02-05T16:28:23.393Z,68.54
2019-02-05T16:30:52.895Z,68.56
2019-02-05T16:33:22.382Z,68.68
2019-02-05T16:35:51.887Z,68.41
2019-02-05T16:38:21.669Z,68.13
2019-02-05T16:40:51.628Z,68.56
2019-02-05T16:43:21.126Z,68.17
2019-02-05T16:45:50.637Z,68.23
2019-02-05T16:48:20.915Z,68.10
2019-02-05T16:50:50.438Z,68.10
2019-02-05T16:53:20.020Z,67.91
2019-02-05T16:55:49.524Z,67.95
2019-02-05T16:58:19.026Z,68.00
2019-02-05T17:00:48.532Z,67.76
2019-02-05T17:03:18.012Z,67.67
2019-02-05T17:05:47.508Z,67.37
2019-02-05T17:08:17.070Z,67.14
2019-02-05T17:10:46.640Z,67.27
2019-02-05T17:13:16.149Z,67.16
2019-02-05T17:15:45.665Z,67.20
2019-02-05T17:18:23.308Z,67.14
2019-02-05T17:20:46.477Z,66.97
2019-02-05T17:23:15.972Z,66.99
2019-02-05T17:25:45.521Z,66.80
2019-02-05T17:28:15.016Z,66.56
2019-02-05T17:30:44.634Z,66.45
2019-02-05T17:33:14.134Z,66.47
2019-02-05T17:35:45.077Z,66.25
2019-02-05T17:38:14.595Z,65.96
2019-02-05T17:40:44.113Z,66.09
2019-02-05T17:43:13.647Z,65.91
2019-02-05T17:45:44.220Z,65.78
2019-02-05T17:48:16.198Z,65.99
2019-02-05T17:50:45.921Z,65.96
2019-02-05T17:53:15.455Z,66.03
2019-02-05T17:55:44.955Z,65.75
2019-02-05T17:58:14.489Z,65.98
2019-02-05T18:00:57.052Z,65.58
2019-02-05T18:03:26.554Z,65.98
2019-02-05T18:05:56.034Z,65.83
2019-02-05T18:08:25.552Z,65.84
2019-02-05T18:10:55.413Z,65.68
2019-02-05T18:13:25.416Z,65.95
2019-02-05T18:15:55.483Z,66.03
2019-02-05T18:18:25.033Z,66.17
2019-02-05T18:20:54.599Z,66.19
2019-02-05T18:23:24.199Z,66.42
2019-02-05T18:25:53.736Z,66.49
2019-02-05T18:28:23.179Z,66.18
2019-02-05T18:30:53.049Z,66.15
2019-02-05T18:33:22.574Z,66.14
2019-02-05T18:35:52.086Z,66.35
2019-02-05T18:38:21.691Z,66.05
2019-02-05T18:40:51.227Z,65.92
2019-02-05T18:43:20.782Z,65.91
2019-02-05T18:45:50.668Z,65.75
2019-02-05T18:48:20.175Z,65.50
2019-02-05T18:50:49.683Z,65.22
2019-02-05T18:53:19.239Z,78.11
2019-02-05T18:55:49.162Z,63.41
2019-02-05T18:58:18.734Z,61.84
2019-02-05T19:00:48.639Z,61.98
2019-02-05T19:03:18.191Z,61.97
2019-02-05T19:05:47.774Z,62.40
2019-02-05T19:08:17.300Z,62.77
2019-02-05T19:10:46.857Z,63.03
2019-02-05T19:13:16.438Z,63.16
2019-02-05T19:15:46.558Z,63.48
2019-02-05T19:18:17.147Z,63.43
2019-02-05T19:20:46.738Z,63.63
2019-02-05T19:23:16.231Z,63.67
2019-02-05T19:26:10.937Z,63.57
2019-02-05T19:28:41.609Z,63.28
2019-02-05T19:31:23.650Z,63.15
2019-02-05T19:33:53.159Z,62.94
2019-02-05T19:36:23.708Z,63.18
2019-02-05T19:38:54.069Z,63.22
2019-02-05T19:41:24.302Z,63.15
2019-02-05T19:43:53.877Z,63.49
2019-02-05T19:46:41.946Z,63.57
2019-02-05T19:49:31.927Z,63.50
2019-02-05T19:52:02.609Z,63.32
2019-02-05T19:54:33.753Z,63.32
2019-02-05T19:57:03.289Z,63.90
2019-02-05T19:59:32.803Z,64.03
2019-02-05T20:02:02.581Z,64.48
2019-02-05T20:04:32.110Z,64.27
2019-02-05T20:07:01.645Z,64.52
2019-02-05T20:09:31.247Z,64.50
2019-02-05T20:12:09.041Z,64.50
2019-02-05T20:14:43.087Z,64.46
2019-02-05T20:17:20.727Z,64.85
2019-02-05T20:19:57.812Z,64.94
2019-02-05T20:22:27.442Z,64.57
2019-02-05T20:24:57.274Z,64.76
2019-02-05T20:27:27.135Z,64.70
2019-02-05T20:29:57.021Z,64.89
2019-02-05T20:32:28.175Z,65.09
2019-02-05T20:34:58.933Z,64.94
2019-02-05T20:37:28.668Z,64.83
2019-02-05T20:39:59.006Z,64.53
2019-02-05T20:42:31.368Z,64.19
2019-02-05T20:45:00.954Z,64.04
2019-02-05T20:47:30.605Z,63.91
2019-02-05T20:50:00.262Z,63.79
2019-02-05T20:52:29.918Z,63.92
2019-02-05T20:54:59.443Z,63.81
2019-02-05T20:57:30.261Z,63.90
2019-02-05T21:00:02.623Z,64.30
2019-02-05T21:02:33.187Z,64.63
2019-02-05T21:05:02.686Z,64.58
2019-02-05T21:07:33.899Z,64.43
2019-02-05T21:10:06.516Z,64.51
2019-02-05T21:12:38.100Z,64.39
2019-02-05T21:15:09.326Z,64.17
2019-02-05T21:17:38.846Z,64.62
2019-02-05T21:20:10.634Z,64.92
2019-02-05T21:22:40.128Z,65.03
2019-02-05T21:26:49.677Z,65.17
2019-02-05T21:29:19.249Z,65.28
2019-02-05T21:31:48.758Z,65.71
2019-02-05T21:34:18.269Z,65.60
2019-02-05T21:36:48.143Z,65.61
2019-02-05T21:41:01.618Z,65.60
2019-02-05T21:43:31.284Z,65.78
2019-02-05T21:46:01.211Z,65.95
2019-02-05T21:48:30.788Z,66.01
2019-02-05T21:51:00.344Z,66.30
2019-02-05T21:53:29.887Z,66.84
2019-02-05T21:55:59.432Z,66.91
2019-02-05T21:58:28.940Z,67.07
2019-02-05T22:00:58.491Z,67.29
2019-02-05T22:03:30.548Z,67.00
2019-02-05T22:06:00.073Z,67.13
2019-02-05T22:08:32.463Z,67.20
2019-02-05T22:11:02.044Z,67.35
2019-02-05T22:13:31.555Z,67.48
2019-02-05T22:16:01.095Z,67.72
2019-02-05T22:18:30.620Z,67.70
2019-02-05T22:21:00.156Z,67.97
2019-02-05T22:23:29.651Z,68.25
